Weather at Beirut Rafic Hariri International Airport

Public forecast

Using degrees Celsius for public forecast. Weather courtesy of forecast.io.

Current aviation weather report (METAR) for Beirut Rafic Hariri International Airport

Report is more than 6 hours old.

2022/11/14 15:00 (retrieved 2 years ago)

OLBA 141500Z 01007KT 8000 FEW030 23/13 Q1017 NOSIG

Closest aviation forecast (TAF) to Beirut Rafic Hariri International Airport

Forecast is more than 12 hours old.

Closest forecast is Rosh Pina Airport, 50.6 nm (93.7 km) S.

2023/02/22 12:27 Ammendment (retrieved 1 year ago)

TAF AMD LLIB 221623Z 2212/2312 CNL